Time;durP1;ratioP1;P1;durP2;ratioP2;P2;SDS_P1;SDS_P2;PMS_P1;PMS_P2;Temp;Humidity;BMP_temperature;BMP_pressure;BME280_temperature;BME280_humidity;BME280_pressure;Samples;Min_cycle;Max_cycle;Signal;HPM_P1;HPM_P2
2023/12/17 00:00:04;;;;;;;41.92;19.63;;;3.40;99.90;;;;;;5012965;28;20041;-80
2023/12/17 00:02:31;;;;;;;38.63;18.38;;;3.40;99.90;;;;;;5008512;28;20053;-80
2023/12/17 00:04:57;;;;;;;40.25;18.50;;;3.40;99.90;;;;;;5010299;28;20050;-79
2023/12/17 00:07:24;;;;;;;40.83;18.75;;;3.40;99.90;;;;;;5010134;28;20046;-80
2023/12/17 00:09:51;;;;;;;35.13;16.48;;;3.40;99.90;;;;;;5007157;28;20042;-80
2023/12/17 00:12:18;;;;;;;45.28;18.73;;;3.40;99.90;;;;;;5008272;28;20045;-80
2023/12/17 00:14:45;;;;;;;38.45;15.45;;;3.40;99.90;;;;;;5009295;28;20057;-78
2023/12/17 00:17:12;;;;;;;32.75;16.70;;;3.30;99.90;;;;;;5012598;28;20042;-79
2023/12/17 00:19:39;;;;;;;35.47;16.25;;;3.30;99.90;;;;;;5014755;28;20101;-80
2023/12/17 00:22:06;;;;;;;34.47;15.15;;;3.30;99.90;;;;;;5013179;28;20054;-79
2023/12/17 00:24:32;;;;;;;35.00;15.20;;;3.20;99.90;;;;;;5009501;28;20046;-78
2023/12/17 00:26:59;;;;;;;31.35;14.73;;;3.20;99.90;;;;;;5019195;28;20050;-80
2023/12/17 00:29:26;;;;;;;37.58;16.80;;;3.20;99.90;;;;;;5010913;28;20042;-80
2023/12/17 00:31:53;;;;;;;31.20;15.63;;;3.20;99.90;;;;;;5004878;28;20053;-79
2023/12/17 00:34:27;;;;;;;28.23;14.95;;;3.10;99.90;;;;;;5003926;28;20042;-79
2023/12/17 00:36:54;;;;;;;31.33;14.70;;;3.10;99.90;;;;;;5012886;28;20552;-80
2023/12/17 00:39:20;;;;;;;26.55;13.13;;;3.00;99.90;;;;;;5010023;28;20096;-79
2023/12/17 00:41:47;;;;;;;19.88;11.65;;;3.00;99.90;;;;;;5009876;28;20289;-80
2023/12/17 00:44:14;;;;;;;28.25;12.93;;;2.90;99.90;;;;;;5010674;28;20129;-80
2023/12/17 00:46:41;;;;;;;22.67;12.93;;;2.90;99.90;;;;;;5010218;28;20046;-80
2023/12/17 00:49:07;;;;;;;23.95;12.18;;;2.80;99.90;;;;;;5006379;28;20077;-79
2023/12/17 00:51:34;;;;;;;23.13;12.68;;;2.80;99.90;;;;;;5011056;28;20476;-79
2023/12/17 00:54:01;;;;;;;25.38;12.40;;;2.80;99.90;;;;;;5009192;28;20042;-78
2023/12/17 00:56:29;;;;;;;21.50;12.35;;;2.70;99.90;;;;;;5008448;28;20373;-79
2023/12/17 00:58:56;;;;;;;22.13;12.25;;;2.70;99.90;;;;;;5005784;28;20477;-79
2023/12/17 01:01:23;;;;;;;18.00;10.10;;;2.70;99.90;;;;;;5005801;28;20042;-79
2023/12/17 01:03:50;;;;;;;21.33;10.75;;;2.60;99.90;;;;;;5011082;28;20054;-80
2023/12/17 01:06:16;;;;;;;19.73;10.88;;;2.60;99.90;;;;;;5006997;28;20041;-80
2023/12/17 01:08:43;;;;;;;21.05;10.07;;;2.50;99.90;;;;;;5010866;28;20046;-79
2023/12/17 01:11:10;;;;;;;18.52;10.75;;;2.50;99.90;;;;;;5008308;28;20053;-79
2023/12/17 01:13:37;;;;;;;16.73;10.40;;;2.40;99.90;;;;;;5023310;28;20100;-80
2023/12/17 01:16:04;;;;;;;21.02;10.73;;;2.40;99.90;;;;;;5006565;28;20505;-78
2023/12/17 01:18:32;;;;;;;21.95;10.10;;;2.30;99.90;;;;;;5007602;28;20041;-79
2023/12/17 01:21:03;;;;;;;22.95;10.52;;;2.30;99.90;;;;;;5006130;28;20129;-79
2023/12/17 01:23:30;;;;;;;18.08;10.40;;;2.30;99.90;;;;;;5009862;28;20502;-80
2023/12/17 01:25:56;;;;;;;16.02;9.40;;;2.30;99.90;;;;;;5021380;28;20046;-79
2023/12/17 01:28:23;;;;;;;22.42;9.52;;;2.20;99.90;;;;;;5007000;28;20469;-79
2023/12/17 01:30:50;;;;;;;17.00;9.85;;;2.20;99.90;;;;;;5005564;28;20050;-79
2023/12/17 01:33:17;;;;;;;15.13;9.52;;;2.20;99.90;;;;;;5007245;28;20073;-77
2023/12/17 01:35:44;;;;;;;16.38;9.45;;;2.20;99.90;;;;;;5006387;28;20104;-80
2023/12/17 01:38:11;;;;;;;15.68;9.10;;;2.20;99.90;;;;;;5009268;28;20445;-79
2023/12/17 01:40:39;;;;;;;14.35;8.30;;;2.10;99.90;;;;;;5009707;28;20050;-80
2023/12/17 01:43:09;;;;;;;13.07;7.65;;;2.10;99.90;;;;;;5002837;28;20494;-79
2023/12/17 01:45:36;;;;;;;14.20;9.20;;;2.10;99.90;;;;;;5006806;28;20046;-80
2023/12/17 01:48:03;;;;;;;15.35;8.95;;;2.10;99.90;;;;;;5005821;28;20084;-80
2023/12/17 01:50:30;;;;;;;27.40;9.63;;;2.00;99.90;;;;;;5018044;28;20046;-79
2023/12/17 01:52:58;;;;;;;16.52;9.38;;;2.00;99.90;;;;;;5016497;28;20046;-78
2023/12/17 01:55:27;;;;;;;27.20;10.13;;;2.00;99.90;;;;;;5013862;28;20479;-78
2023/12/17 01:57:54;;;;;;;54.22;12.52;;;2.00;99.90;;;;;;5008676;28;20465;-78
2023/12/17 02:00:21;;;;;;;41.00;11.88;;;1.90;99.90;;;;;;5004792;28;20101;-79
2023/12/17 02:02:48;;;;;;;60.35;12.93;;;1.90;99.90;;;;;;5006852;28;20050;-78
2023/12/17 02:05:15;;;;;;;37.08;13.80;;;1.90;99.90;;;;;;5007065;28;20104;-78
2023/12/17 02:07:42;;;;;;;34.22;13.25;;;1.90;99.90;;;;;;5005080;28;20399;-78
2023/12/17 02:10:09;;;;;;;30.42;13.57;;;1.80;99.90;;;;;;5002942;28;20050;-79
2023/12/17 02:12:36;;;;;;;24.48;12.43;;;1.80;99.90;;;;;;5012723;28;20050;-77
2023/12/17 02:15:03;;;;;;;37.08;12.90;;;1.70;99.90;;;;;;5006132;28;20046;-77
2023/12/17 02:17:31;;;;;;;61.10;14.00;;;1.70;99.90;;;;;;5007649;28;20052;-77
2023/12/17 02:19:58;;;;;;;55.42;14.55;;;1.60;99.90;;;;;;5008691;28;20292;-77
2023/12/17 02:22:26;;;;;;;78.43;14.98;;;1.60;99.90;;;;;;5012708;28;20563;-78
2023/12/17 02:24:53;;;;;;;130.73;15.73;;;1.60;99.90;;;;;;5007764;28;20107;-80
2023/12/17 02:27:25;;;;;;;90.20;16.27;;;1.60;99.90;;;;;;5011308;28;20136;-79
2023/12/17 02:29:53;;;;;;;62.97;14.52;;;1.60;99.90;;;;;;5006373;28;20042;-77
2023/12/17 02:32:22;;;;;;;113.10;15.48;;;1.70;99.90;;;;;;5010186;28;20046;-79
2023/12/17 02:34:49;;;;;;;109.80;14.60;;;1.70;99.90;;;;;;5006703;28;20053;-79
2023/12/17 02:37:17;;;;;;;51.97;14.65;;;1.70;99.90;;;;;;5010388;28;20052;-79
2023/12/17 02:39:44;;;;;;;55.50;15.57;;;1.80;99.90;;;;;;5007219;28;20123;-79
2023/12/17 02:42:11;;;;;;;40.45;14.57;;;1.90;99.90;;;;;;5005708;28;20074;-79
2023/12/17 02:44:38;;;;;;;289.50;22.73;;;2.00;99.90;;;;;;5012311;28;20133;-79
2023/12/17 02:47:04;;;;;;;90.53;15.52;;;2.10;99.90;;;;;;5015290;28;20046;-78
2023/12/17 02:49:33;;;;;;;158.68;17.35;;;2.10;99.90;;;;;;5032886;28;20053;-78
2023/12/17 02:52:00;;;;;;;146.55;17.30;;;2.10;99.90;;;;;;5014087;28;20505;-78
2023/12/17 02:54:28;;;;;;;224.57;20.48;;;2.10;99.90;;;;;;5013016;28;20092;-77
2023/12/17 02:56:54;;;;;;;88.05;15.77;;;2.10;99.90;;;;;;5022547;28;20050;-77
2023/12/17 02:59:21;;;;;;;152.40;17.98;;;2.20;99.90;;;;;;5006960;28;20556;-78
2023/12/17 03:01:49;;;;;;;111.05;16.10;;;2.20;99.90;;;;;;5006303;28;20054;-78
2023/12/17 03:04:16;;;;;;;205.40;18.83;;;2.20;99.90;;;;;;5011826;28;20060;-78
2023/12/17 03:06:43;;;;;;;348.10;22.65;;;2.30;99.90;;;;;;5007630;28;20045;-78
2023/12/17 03:09:13;;;;;;;306.33;21.00;;;2.20;99.90;;;;;;5009802;28;20042;-77
2023/12/17 03:11:40;;;;;;;124.68;16.67;;;2.30;99.90;;;;;;5006739;28;20050;-78
2023/12/17 03:14:07;;;;;;;40.95;15.15;;;2.30;99.90;;;;;;5012838;28;20038;-78
2023/12/17 03:16:34;;;;;;;188.48;19.27;;;2.40;99.90;;;;;;5009295;28;20097;-77
2023/12/17 03:19:01;;;;;;;169.00;17.55;;;2.40;99.90;;;;;;5008004;28;20049;-78
2023/12/17 03:21:28;;;;;;;210.60;18.52;;;2.40;99.90;;;;;;5009559;28;20053;-77
2023/12/17 03:23:55;;;;;;;255.30;17.90;;;2.40;99.90;;;;;;5008897;28;20414;-80
2023/12/17 03:26:21;;;;;;;65.95;15.07;;;2.50;99.90;;;;;;5009235;28;20684;-79
2023/12/17 03:28:48;;;;;;;109.90;16.08;;;2.50;99.90;;;;;;5005418;28;20093;-79
2023/12/17 03:31:16;;;;;;;108.82;17.23;;;2.50;99.90;;;;;;5012263;28;20042;-78
2023/12/17 03:33:44;;;;;;;283.05;20.55;;;2.50;99.90;;;;;;5008760;28;20058;-80
2023/12/17 03:36:15;;;;;;;155.57;16.48;;;2.60;99.90;;;;;;5011299;28;20051;-78
2023/12/17 03:38:44;;;;;;;94.60;16.90;;;2.50;99.90;;;;;;5006298;28;20049;-77
2023/12/17 03:41:27;;;;;;;96.82;16.80;;;2.60;99.90;;;;;;5009921;28;20050;-78
2023/12/17 03:43:56;;;;;;;127.43;16.58;;;2.60;99.90;;;;;;5008020;28;20050;-78
2023/12/17 03:46:24;;;;;;;114.20;16.30;;;2.70;99.90;;;;;;5008468;28;20045;-78
2023/12/17 03:48:52;;;;;;;103.13;17.50;;;2.70;99.90;;;;;;5010685;28;20056;-78
2023/12/17 03:51:19;;;;;;;99.80;16.50;;;2.70;99.90;;;;;;5007682;28;20049;-79
2023/12/17 03:53:46;;;;;;;130.27;15.85;;;2.80;99.90;;;;;;5009229;28;20465;-78
2023/12/17 03:56:14;;;;;;;99.25;15.82;;;2.80;99.90;;;;;;5010356;28;20081;-79
2023/12/17 03:58:42;;;;;;;111.93;15.73;;;2.80;99.90;;;;;;5007554;28;20046;-79
2023/12/17 04:01:09;;;;;;;55.55;14.45;;;2.90;99.90;;;;;;5013378;28;20111;-78
2023/12/17 04:03:36;;;;;;;74.93;15.23;;;2.90;99.90;;;;;;5009623;28;20505;-78
2023/12/17 04:06:05;;;;;;;107.45;14.48;;;2.90;99.90;;;;;;5005560;28;20064;-78
2023/12/17 04:08:33;;;;;;;47.15;13.52;;;2.90;99.90;;;;;;5008600;28;20164;-78
2023/12/17 04:10:59;;;;;;;31.40;12.80;;;2.90;99.90;;;;;;5008452;28;20548;-77
2023/12/17 04:13:26;;;;;;;34.08;12.85;;;3.00;99.90;;;;;;5011248;28;20042;-78
2023/12/17 04:15:53;;;;;;;57.10;12.23;;;3.00;99.90;;;;;;5007833;28;20046;-78
2023/12/17 04:18:20;;;;;;;40.33;12.95;;;3.00;99.90;;;;;;5004037;28;20502;-78
2023/12/17 04:20:47;;;;;;;42.78;11.35;;;3.00;99.90;;;;;;5005603;28;20053;-79
2023/12/17 04:23:15;;;;;;;73.88;13.05;;;3.00;99.90;;;;;;5008196;28;20136;-80
2023/12/17 04:25:41;;;;;;;24.23;9.63;;;3.00;99.90;;;;;;5007860;28;20058;-78
2023/12/17 04:28:08;;;;;;;15.45;8.63;;;3.00;99.90;;;;;;5007334;28;20054;-80
2023/12/17 04:30:35;;;;;;;15.50;7.95;;;3.00;99.90;;;;;;5007501;28;20050;-78
2023/12/17 04:33:02;;;;;;;12.95;7.15;;;3.00;99.90;;;;;;5005958;28;20047;-78
2023/12/17 04:35:29;;;;;;;12.85;6.00;;;3.00;99.90;;;;;;5010432;28;20517;-78
2023/12/17 04:37:55;;;;;;;12.60;6.78;;;3.00;99.90;;;;;;5010167;28;20499;-79
2023/12/17 04:40:22;;;;;;;9.73;6.25;;;3.00;99.90;;;;;;5009272;28;20049;-79
2023/12/17 04:42:49;;;;;;;11.95;6.40;;;3.00;99.90;;;;;;5007277;28;20054;-78
2023/12/17 04:45:15;;;;;;;10.50;6.20;;;3.00;99.90;;;;;;5009417;28;20485;-79
2023/12/17 04:47:42;;;;;;;14.02;6.50;;;3.00;99.90;;;;;;5005101;28;20046;-77
2023/12/17 04:50:10;;;;;;;16.02;7.00;;;2.90;99.90;;;;;;5007989;28;20519;-77
2023/12/17 04:52:36;;;;;;;20.88;5.82;;;3.00;99.90;;;;;;5005947;28;20496;-79
2023/12/17 04:55:04;;;;;;;13.20;6.68;;;2.90;99.90;;;;;;5006315;28;20418;-79
2023/12/17 04:57:30;;;;;;;10.30;6.30;;;2.90;99.90;;;;;;5008639;28;20046;-78
2023/12/17 05:00:00;;;;;;;9.38;5.72;;;2.90;99.90;;;;;;5003995;28;20046;-80
2023/12/17 05:02:28;;;;;;;9.75;6.20;;;2.90;99.90;;;;;;5007989;28;20042;-78
2023/12/17 05:04:54;;;;;;;12.30;6.30;;;2.90;99.90;;;;;;5003906;28;20430;-78
2023/12/17 05:07:21;;;;;;;12.50;6.35;;;2.80;99.90;;;;;;5009864;28;20129;-79
2023/12/17 05:09:48;;;;;;;11.32;6.97;;;2.80;99.90;;;;;;5008117;28;20061;-79
2023/12/17 05:12:15;;;;;;;8.85;5.50;;;2.80;99.90;;;;;;5007646;28;20053;-78
2023/12/17 05:14:42;;;;;;;8.43;5.85;;;2.80;99.90;;;;;;5006349;28;20053;-78
2023/12/17 05:17:10;;;;;;;10.50;5.47;;;2.80;99.90;;;;;;5010951;28;20465;-79
2023/12/17 05:19:36;;;;;;;8.07;5.25;;;2.80;99.90;;;;;;5005391;28;20116;-80
2023/12/17 05:22:04;;;;;;;7.22;4.45;;;2.80;99.90;;;;;;5006993;28;20054;-80
2023/12/17 05:24:30;;;;;;;8.18;4.60;;;2.80;99.90;;;;;;5005637;28;20104;-80
2023/12/17 05:26:57;;;;;;;9.05;5.35;;;2.80;99.90;;;;;;5005679;28;20117;-78
2023/12/17 05:29:24;;;;;;;7.80;5.13;;;2.80;99.90;;;;;;5007237;28;20046;-80
2023/12/17 05:31:51;;;;;;;7.50;4.88;;;2.70;99.90;;;;;;5004947;28;20046;-80
2023/12/17 05:34:17;;;;;;;6.60;4.63;;;2.70;99.90;;;;;;5012839;28;20046;-78
2023/12/17 05:36:44;;;;;;;7.32;4.50;;;2.70;99.90;;;;;;5015420;28;20073;-79
2023/12/17 05:39:11;;;;;;;7.75;5.05;;;2.70;99.90;;;;;;5014850;28;20042;-77
2023/12/17 05:41:38;;;;;;;8.35;5.10;;;2.60;99.90;;;;;;5004113;28;20054;-78
2023/12/17 05:44:04;;;;;;;8.63;5.25;;;2.60;99.90;;;;;;5010197;28;20119;-78
2023/12/17 05:46:31;;;;;;;7.43;5.20;;;2.60;99.90;;;;;;5006623;28;20057;-77
2023/12/17 05:48:58;;;;;;;7.20;4.68;;;2.50;99.90;;;;;;5010265;28;20054;-79
2023/12/17 05:51:25;;;;;;;5.65;3.95;;;2.50;99.90;;;;;;5009631;28;20042;-77
2023/12/17 05:53:52;;;;;;;5.13;3.92;;;2.40;99.90;;;;;;5012187;28;20046;-77
2023/12/17 05:56:19;;;;;;;8.45;5.20;;;2.40;99.90;;;;;;5009336;28;20497;-77
2023/12/17 05:58:45;;;;;;;7.65;5.10;;;2.30;99.90;;;;;;5009985;28;20065;-79
2023/12/17 06:01:12;;;;;;;7.40;4.70;;;2.20;99.90;;;;;;5026575;28;20127;-78
2023/12/17 06:03:39;;;;;;;6.90;4.60;;;2.20;99.90;;;;;;5010753;28;20049;-78
2023/12/17 06:06:07;;;;;;;15.00;4.75;;;2.10;99.90;;;;;;5009803;28;20085;-78
2023/12/17 06:08:34;;;;;;;18.00;4.75;;;2.10;99.90;;;;;;5009185;28;20505;-79
2023/12/17 06:11:01;;;;;;;17.95;5.63;;;2.00;99.90;;;;;;5013210;28;20182;-80
2023/12/17 06:13:28;;;;;;;82.05;6.88;;;1.90;99.90;;;;;;5010023;28;20435;-78
2023/12/17 06:15:55;;;;;;;172.57;10.30;;;1.80;99.90;;;;;;5025303;28;20116;-77
2023/12/17 06:18:22;;;;;;;124.22;10.02;;;1.70;99.90;;;;;;5004673;28;20038;-79
2023/12/17 06:20:49;;;;;;;99.32;8.45;;;1.70;99.90;;;;;;5011479;28;20058;-79
2023/12/17 06:23:16;;;;;;;102.40;8.70;;;1.50;99.90;;;;;;5014260;28;20053;-79
2023/12/17 06:25:43;;;;;;;108.40;9.65;;;1.40;99.90;;;;;;5011220;28;20053;-77
2023/12/17 06:28:10;;;;;;;123.07;10.50;;;1.40;99.90;;;;;;5006655;28;20360;-77
2023/12/17 06:30:37;;;;;;;138.38;10.23;;;1.40;99.90;;;;;;5011153;28;20089;-78
2023/12/17 06:33:04;;;;;;;131.18;10.23;;;1.40;99.90;;;;;;5008820;28;20132;-77
2023/12/17 06:35:31;;;;;;;195.93;11.32;;;1.40;99.90;;;;;;5011038;28;20063;-79
2023/12/17 06:37:58;;;;;;;210.52;12.55;;;1.30;99.90;;;;;;5007070;28;20046;-78
2023/12/17 06:40:25;;;;;;;198.32;10.70;;;1.30;99.90;;;;;;5010682;28;20046;-78
2023/12/17 06:42:52;;;;;;;207.25;10.68;;;1.30;99.90;;;;;;5009723;28;20045;-77
2023/12/17 06:45:19;;;;;;;97.07;7.70;;;1.30;99.90;;;;;;5008416;28;20046;-77
2023/12/17 06:47:46;;;;;;;56.05;7.97;;;1.20;99.90;;;;;;5009408;28;20499;-78
2023/12/17 06:50:13;;;;;;;83.85;8.25;;;1.30;99.90;;;;;;5012706;28;20050;-78
2023/12/17 06:52:40;;;;;;;80.50;7.85;;;1.30;99.90;;;;;;5010092;28;20494;-77
2023/12/17 06:55:07;;;;;;;79.57;7.68;;;1.30;99.90;;;;;;5006513;28;20046;-78
2023/12/17 06:57:34;;;;;;;54.42;7.82;;;1.20;99.90;;;;;;5009745;28;20092;-78
2023/12/17 07:00:01;;;;;;;36.33;7.10;;;1.30;99.90;;;;;;5004700;28;20054;-77
2023/12/17 07:02:29;;;;;;;43.97;6.80;;;1.40;99.90;;;;;;5011273;28;20560;-79
2023/12/17 07:04:56;;;;;;;33.55;7.32;;;1.40;99.90;;;;;;5007691;28;20107;-80
2023/12/17 07:07:24;;;;;;;26.40;7.13;;;1.40;99.90;;;;;;5008096;28;20048;-78
2023/12/17 07:09:53;;;;;;;18.15;6.93;;;1.40;99.90;;;;;;5005634;28;20054;-79
2023/12/17 07:12:20;;;;;;;17.08;7.00;;;1.40;99.90;;;;;;5027041;28;20042;-79
2023/12/17 07:14:47;;;;;;;13.27;6.25;;;1.40;99.90;;;;;;5013349;28;20045;-80
2023/12/17 07:17:13;;;;;;;11.50;6.30;;;1.50;99.90;;;;;;5008735;28;20078;-79
2023/12/17 07:19:40;;;;;;;10.35;6.10;;;1.50;99.90;;;;;;5008863;28;20128;-79
2023/12/17 07:22:07;;;;;;;12.50;5.78;;;1.50;99.90;;;;;;5006767;28;20060;-79
2023/12/17 07:24:34;;;;;;;10.93;5.25;;;1.50;99.90;;;;;;5013993;28;20080;-80
2023/12/17 07:27:01;;;;;;;10.40;5.15;;;1.40;99.90;;;;;;5006106;28;20050;-79
2023/12/17 07:29:28;;;;;;;8.02;5.03;;;1.50;99.90;;;;;;5011310;28;20137;-77
2023/12/17 07:31:54;;;;;;;10.75;5.63;;;1.50;99.90;;;;;;5005288;28;20047;-78
2023/12/17 07:34:21;;;;;;;9.98;5.15;;;1.40;99.90;;;;;;5010378;28;20037;-77
2023/12/17 07:36:48;;;;;;;7.90;5.00;;;1.40;99.90;;;;;;5012736;28;20129;-78
2023/12/17 07:39:15;;;;;;;7.30;4.97;;;1.50;99.90;;;;;;5008686;28;20046;-79
2023/12/17 07:41:41;;;;;;;8.30;4.80;;;1.50;99.90;;;;;;5012824;28;20046;-78
2023/12/17 07:44:08;;;;;;;7.28;5.03;;;1.50;99.90;;;;;;5010863;28;20055;-79
2023/12/17 07:46:35;;;;;;;7.93;5.07;;;1.50;99.90;;;;;;5012811;28;20045;-78
2023/12/17 07:49:01;;;;;;;11.73;5.47;;;1.40;99.90;;;;;;5006286;28;20497;-79
2023/12/17 07:51:28;;;;;;;8.43;5.20;;;1.40;99.90;;;;;;5007881;28;20410;-78
2023/12/17 07:53:55;;;;;;;10.77;6.38;;;1.40;99.90;;;;;;5006682;28;20054;-77
2023/12/17 07:56:22;;;;;;;10.43;6.80;;;1.40;99.90;;;;;;5008415;28;20133;-78
2023/12/17 07:58:49;;;;;;;8.90;6.05;;;1.40;99.90;;;;;;5009641;28;20053;-77
2023/12/17 08:01:16;;;;;;;10.05;6.22;;;1.40;99.90;;;;;;5009944;28;20050;-79
2023/12/17 08:03:46;;;;;;;8.70;5.70;;;1.50;99.90;;;;;;5010932;28;20053;-79
2023/12/17 08:06:13;;;;;;;10.95;6.93;;;1.40;99.90;;;;;;5009251;28;20072;-77
2023/12/17 08:08:41;;;;;;;7.63;5.40;;;1.50;99.90;;;;;;5004100;28;20145;-78
2023/12/17 08:11:12;;;;;;;7.78;5.85;;;1.50;99.90;;;;;;5005964;28;20457;-77
2023/12/17 08:13:39;;;;;;;9.73;6.03;;;1.50;99.90;;;;;;5003396;28;20053;-79
2023/12/17 08:16:06;;;;;;;9.93;6.50;;;1.50;99.90;;;;;;5005127;28;20049;-79
2023/12/17 08:18:33;;;;;;;9.13;5.80;;;1.50;99.90;;;;;;5005547;28;20458;-79
2023/12/17 08:21:01;;;;;;;8.13;5.38;;;1.50;99.90;;;;;;5009755;28;20050;-79
2023/12/17 08:23:28;;;;;;;8.85;5.50;;;1.50;99.90;;;;;;5004358;28;20042;-77
2023/12/17 08:25:55;;;;;;;11.20;6.43;;;1.50;99.90;;;;;;5004938;28;20124;-78
2023/12/17 08:28:22;;;;;;;9.30;6.32;;;1.50;99.90;;;;;;5004696;28;20470;-78
2023/12/17 08:30:49;;;;;;;13.30;8.38;;;1.50;99.90;;;;;;5006579;28;20104;-77
2023/12/17 08:33:17;;;;;;;15.93;8.23;;;1.40;99.90;;;;;;5009444;28;20042;-77
2023/12/17 08:35:45;;;;;;;52.97;11.50;;;1.30;99.90;;;;;;5003140;28;20048;-77
2023/12/17 08:38:13;;;;;;;119.55;12.43;;;1.20;99.90;;;;;;5009210;28;20046;-78
2023/12/17 08:40:40;;;;;;;92.78;12.32;;;1.10;99.90;;;;;;5001855;28;20494;-77
2023/12/17 08:43:08;;;;;;;38.42;10.18;;;1.10;99.90;;;;;;5006071;28;20060;-77
2023/12/17 08:45:35;;;;;;;46.08;10.00;;;1.10;99.90;;;;;;5005533;28;20053;-76
2023/12/17 08:48:02;;;;;;;41.30;10.13;;;1.10;99.90;;;;;;5006392;28;20050;-76
2023/12/17 08:50:30;;;;;;;43.67;11.05;;;1.10;99.90;;;;;;5005053;28;20104;-78
2023/12/17 08:52:56;;;;;;;52.22;10.55;;;1.20;99.90;;;;;;5006542;28;20046;-77
2023/12/17 08:55:24;;;;;;;38.83;10.93;;;1.30;99.90;;;;;;5006391;28;20512;-79
2023/12/17 08:57:52;;;;;;;40.80;10.32;;;1.30;99.90;;;;;;5001224;28;20131;-76
2023/12/17 09:00:19;;;;;;;33.08;10.85;;;1.40;99.90;;;;;;5005620;28;20101;-77
2023/12/17 09:02:46;;;;;;;37.28;10.45;;;1.40;99.90;;;;;;5005928;28;20053;-78
2023/12/17 09:05:13;;;;;;;31.45;11.25;;;1.40;99.90;;;;;;5004370;28;20422;-76
2023/12/17 09:07:39;;;;;;;56.47;15.30;;;1.50;99.90;;;;;;5005911;28;20050;-77
2023/12/17 09:10:07;;;;;;;22.73;11.25;;;1.50;99.90;;;;;;5021181;28;20425;-81
2023/12/17 09:12:34;;;;;;;33.83;11.02;;;1.60;99.90;;;;;;5005556;28;20088;-80
2023/12/17 09:15:00;;;;;;;50.30;10.70;;;1.70;99.90;;;;;;5005137;28;20422;-77
2023/12/17 09:17:27;;;;;;;30.15;9.32;;;1.70;99.90;;;;;;5004612;28;20050;-78
2023/12/17 09:19:54;;;;;;;34.35;9.85;;;1.80;99.90;;;;;;5004680;28;20211;-78
2023/12/17 09:22:21;;;;;;;53.90;11.18;;;1.90;99.90;;;;;;5008132;28;20058;-79
2023/12/17 09:24:48;;;;;;;80.28;12.40;;;1.90;99.90;;;;;;5012233;28;20107;-80
2023/12/17 09:27:15;;;;;;;51.53;10.25;;;1.90;99.90;;;;;;5009988;28;20092;-77
2023/12/17 09:29:42;;;;;;;89.68;10.55;;;2.00;99.90;;;;;;5008305;28;20373;-76
2023/12/17 09:32:09;;;;;;;142.85;12.73;;;2.00;99.90;;;;;;5012497;28;20053;-77
2023/12/17 09:34:36;;;;;;;153.80;13.52;;;2.00;99.90;;;;;;5018774;28;20046;-77
2023/12/17 09:37:03;;;;;;;51.63;10.43;;;2.10;99.90;;;;;;5012068;28;20129;-77
2023/12/17 09:39:30;;;;;;;153.02;12.30;;;2.10;99.90;;;;;;5008353;28;20041;-77
2023/12/17 09:41:57;;;;;;;99.85;11.65;;;2.20;99.90;;;;;;5014610;28;20065;-76
2023/12/17 09:44:26;;;;;;;69.68;11.35;;;2.20;99.90;;;;;;5011635;28;20450;-77
2023/12/17 09:46:53;;;;;;;35.40;10.70;;;2.30;99.90;;;;;;5008898;28;20046;-77
2023/12/17 09:49:20;;;;;;;116.00;12.95;;;2.40;99.90;;;;;;5009656;28;20050;-79
2023/12/17 09:51:50;;;;;;;26.00;10.93;;;2.40;99.90;;;;;;5015735;28;20050;-76
2023/12/17 09:54:17;;;;;;;20.58;10.25;;;2.50;99.90;;;;;;5012078;28;20054;-77
2023/12/17 09:56:47;;;;;;;24.60;10.77;;;2.60;99.90;;;;;;5009987;28;20452;-78
2023/12/17 09:59:15;;;;;;;25.80;11.05;;;2.60;99.90;;;;;;5005800;28;20109;-78
2023/12/17 10:01:41;;;;;;;17.90;10.57;;;2.70;99.90;;;;;;5009480;28;20045;-79
2023/12/17 10:04:08;;;;;;;22.23;11.55;;;2.80;99.90;;;;;;5012229;28;20053;-79
2023/12/17 10:06:35;;;;;;;19.77;11.23;;;2.90;99.90;;;;;;5026898;28;20096;-79
2023/12/17 10:09:04;;;;;;;18.40;10.32;;;2.90;99.90;;;;;;5006747;28;20053;-79
2023/12/17 10:11:32;;;;;;;21.50;12.50;;;3.10;99.90;;;;;;5011276;28;20058;-79
2023/12/17 10:14:01;;;;;;;20.48;12.23;;;3.10;99.90;;;;;;5009248;28;20464;-81
2023/12/17 10:16:28;;;;;;;19.10;11.45;;;3.20;99.90;;;;;;5007668;28;20322;-79
2023/12/17 10:18:55;;;;;;;17.10;10.70;;;3.20;99.90;;;;;;5009954;28;20531;-78
2023/12/17 10:21:21;;;;;;;16.88;11.13;;;3.20;99.90;;;;;;5011794;28;20504;-80
2023/12/17 10:23:49;;;;;;;24.85;17.60;;;3.20;99.90;;;;;;5011049;28;20054;-78
2023/12/17 10:26:17;;;;;;;19.30;12.00;;;3.20;99.90;;;;;;5012199;28;20109;-79
2023/12/17 10:28:47;;;;;;;18.27;10.85;;;3.20;99.90;;;;;;5012248;28;20045;-79
2023/12/17 10:31:16;;;;;;;19.10;10.35;;;3.20;99.90;;;;;;5012713;28;20050;-78
2023/12/17 10:34:12;;;;;;;15.93;9.43;;;3.20;99.90;;;;;;5008863;28;20096;-78
2023/12/17 10:36:39;;;;;;;14.60;9.60;;;3.20;99.90;;;;;;5010378;28;20050;-79
2023/12/17 10:39:07;;;;;;;18.02;10.27;;;3.20;99.90;;;;;;5009318;28;20046;-80
2023/12/17 10:41:36;;;;;;;16.55;9.85;;;3.20;99.90;;;;;;5010357;28;20445;-79
2023/12/17 10:44:04;;;;;;;11.02;7.53;;;3.30;99.90;;;;;;5010614;28;20453;-80
2023/12/17 10:46:32;;;;;;;11.55;7.28;;;3.30;99.90;;;;;;5012043;28;20050;-79
2023/12/17 10:48:59;;;;;;;9.60;7.28;;;3.30;99.90;;;;;;5008604;28;20046;-79
2023/12/17 10:51:27;;;;;;;13.85;8.48;;;3.30;99.90;;;;;;5022244;28;20080;-81
2023/12/17 10:53:54;;;;;;;10.40;7.60;;;3.40;99.90;;;;;;5009517;28;20060;-78
2023/12/17 10:56:21;;;;;;;13.75;9.07;;;3.40;99.90;;;;;;5012187;28;20104;-79
2023/12/17 10:58:48;;;;;;;14.65;9.65;;;3.40;99.90;;;;;;5007762;28;20478;-79
2023/12/17 11:01:15;;;;;;;14.25;10.27;;;3.40;99.90;;;;;;5010253;28;20057;-80
2023/12/17 11:03:43;;;;;;;14.43;9.88;;;3.50;99.90;;;;;;5013900;28;20136;-80
2023/12/17 11:06:10;;;;;;;17.48;10.80;;;3.50;99.90;;;;;;5009856;28;20054;-80
2023/12/17 11:08:37;;;;;;;15.80;10.55;;;3.50;99.90;;;;;;5007465;28;20417;-81
2023/12/17 11:11:04;;;;;;;18.63;11.65;;;3.60;99.90;;;;;;5012483;28;20064;-78
2023/12/17 11:13:31;;;;;;;20.50;12.15;;;3.60;99.90;;;;;;5028334;28;20085;-80
2023/12/17 11:16:20;;;;;;;22.38;12.63;;;3.60;99.90;;;;;;5006449;28;20045;-79
2023/12/17 11:18:47;;;;;;;19.98;12.23;;;3.60;99.90;;;;;;5010284;28;20046;-80
2023/12/17 11:21:17;;;;;;;19.40;11.93;;;3.70;99.90;;;;;;5011000;28;20052;-80
2023/12/17 11:23:49;;;;;;;17.27;10.25;;;3.70;99.90;;;;;;5011442;28;20421;-79
2023/12/17 11:26:17;;;;;;;16.70;11.20;;;3.70;99.90;;;;;;5011167;28;20054;-80
2023/12/17 11:28:45;;;;;;;17.40;10.95;;;3.80;99.90;;;;;;5011338;28;20077;-79
2023/12/17 11:31:12;;;;;;;17.25;10.70;;;3.80;99.90;;;;;;5004987;28;20105;-80
2023/12/17 11:33:40;;;;;;;14.07;9.90;;;3.80;99.90;;;;;;5011073;28;20072;-81
2023/12/17 11:36:11;;;;;;;15.65;9.85;;;3.80;99.90;;;;;;5007585;28;20046;-80
2023/12/17 11:38:38;;;;;;;17.25;11.05;;;3.90;99.90;;;;;;5011158;28;20046;-79
2023/12/17 11:41:05;;;;;;;16.10;10.18;;;3.90;99.90;;;;;;5007503;28;20050;-79
2023/12/17 11:43:32;;;;;;;20.35;10.98;;;4.00;99.90;;;;;;5009224;28;20054;-79
2023/12/17 11:45:59;;;;;;;17.25;10.45;;;4.00;99.90;;;;;;5011232;28;20041;-78
2023/12/17 11:48:27;;;;;;;17.50;10.82;;;3.90;99.90;;;;;;5005602;28;20120;-79
2023/12/17 11:50:56;;;;;;;15.77;10.38;;;3.90;99.90;;;;;;5009908;28;20123;-78
2023/12/17 11:53:26;;;;;;;17.50;10.80;;;3.90;99.90;;;;;;5011772;28;20096;-78
2023/12/17 11:56:03;;;;;;;16.05;10.90;;;3.90;99.90;;;;;;5014236;28;20050;-79
2023/12/17 11:58:30;;;;;;;19.58;11.23;;;3.90;99.90;;;;;;5007597;28;20101;-79
2023/12/17 12:01:06;;;;;;;20.25;12.10;;;3.90;99.90;;;;;;5011053;28;20069;-80
2023/12/17 12:03:34;;;;;;;20.42;11.82;;;3.90;99.90;;;;;;5010989;28;20056;-79
2023/12/17 12:06:06;;;;;;;18.67;11.45;;;3.90;99.90;;;;;;5016383;28;20050;-80
2023/12/17 12:08:41;;;;;;;19.95;11.50;;;3.90;99.90;;;;;;5011637;28;20501;-79
2023/12/17 12:11:11;;;;;;;21.70;11.73;;;4.00;99.90;;;;;;5007993;28;20053;-80
2023/12/17 12:13:41;;;;;;;20.60;12.25;;;4.00;99.90;;;;;;5014870;28;20046;-81
2023/12/17 12:16:12;;;;;;;19.73;12.10;;;4.00;99.90;;;;;;5011692;28;20041;-79
2023/12/17 12:18:39;;;;;;;18.42;11.35;;;4.10;99.90;;;;;;5012856;28;20506;-81
2023/12/17 12:21:24;;;;;;;18.73;12.10;;;4.10;99.90;;;;;;5010758;28;20092;-79
2023/12/17 12:23:52;;;;;;;17.27;11.50;;;4.10;99.90;;;;;;5010867;28;20438;-81
2023/12/17 12:26:20;;;;;;;19.00;12.13;;;4.20;99.90;;;;;;5008878;28;20418;-80
2023/12/17 12:28:58;;;;;;;19.20;12.65;;;4.20;99.90;;;;;;5009238;28;20053;-81
2023/12/17 12:31:25;;;;;;;19.00;11.85;;;4.30;99.90;;;;;;5008020;28;20046;-78
2023/12/17 12:33:54;;;;;;;17.70;11.38;;;4.30;99.90;;;;;;5011877;28;20042;-78
2023/12/17 12:36:21;;;;;;;17.08;10.60;;;4.30;99.90;;;;;;5009980;28;20046;-78
2023/12/17 12:39:02;;;;;;;14.35;10.27;;;4.40;99.90;;;;;;5012992;28;20049;-79
2023/12/17 12:41:30;;;;;;;15.18;9.63;;;4.40;99.90;;;;;;5007301;28;20065;-80